METAR Data
IDs: Format: Raw Decoded Include TAF

Data at: 2047 UTC 19 May 2019

KPWG 191956Z AUTO 00000KT 9SM SCT036 29/22 A2988 RMK AO2 SLP121 T02940217
KPWG 191856Z AUTO 07005KT 10SM CLR 29/21 A2989 RMK AO2 SLP124 T02890211
KPWG 191756Z AUTO 36005KT 9SM BKN032 28/21 A2990 RMK AO2 SLP130 T02780206 10283 20239 53006
KPWG 191656Z AUTO 00000KT 10SM CLR 28/22 A2990 RMK AO2 SLP129 T02780217
KPWG 191556Z AUTO 32008KT 10SM SCT022 27/23 A2988 RMK AO2 SLP124 T02720228
KPWG 191456Z AUTO 28006KT 9SM SCT013 SCT018 27/23 A2988 RMK AO2 SLP124 T02670228 51021
KPWG 191407Z AUTO 33005KT 6SM BR FEW007 SCT011 SCT016 25/24 A2988 RMK AO2
KPWG 191356Z AUTO 34006KT 5SM BR FEW006 BKN014 BKN022 24/24 A2987 RMK AO2 SLP121 T02440239
KPWG 191354Z AUTO 32006KT 5SM BR FEW006 SCT012 BKN016 24/24 A2987 RMK AO2
KPWG 191344Z AUTO 32006KT 6SM BR BKN012 BKN019 24/24 A2987 RMK AO2
KPWG 191256Z AUTO 23004KT 4SM BR CLR 24/23 A2985 RMK AO2 SLP112 T02390233
KPWG 191244Z AUTO 17004KT 4SM BR CLR 23/23 A2984 RMK AO2
KPWG 191232Z AUTO 19004KT 2 1/2SM BR CLR 23/23 A2984 RMK AO2
KPWG 191213Z AUTO 19004KT 1 1/4SM BR CLR 22/22 A2982 RMK AO2
KPWG 191207Z AUTO 18004KT 3/4SM BR CLR 22/22 A2982 RMK AO2
KPWG 191156Z AUTO 15003KT 1SM BR VV012 22/22 A2982 RMK AO2 SLP103 70030 T02170217 10244 20217 51013
KPWG 191149Z AUTO 15003KT 1/2SM FG VV013 22/22 A2982 RMK AO2
KPWG 191136Z AUTO 17005KT 1/2SM FG CLR 22/22 A2980 RMK AO2
KPWG 191130Z AUTO 18004KT 1SM BR CLR 22/22 A2980 RMK AO2
KPWG 191056Z AUTO 20003KT 2SM BR CLR 22/22 A2979 RMK AO2 SLP095 T02220222
KPWG 190956Z AUTO 22004KT 4SM BR CLR 23/23 A2978 RMK AO2 SLP091 T02330233
KPWG 190935Z AUTO 20005KT 4SM BR FEW020 23/23 A2977 RMK AO2
KPWG 190911Z AUTO 20006KT 5SM BR BKN020 23/23 A2977 RMK AO2
KPWG 190856Z AUTO 19007KT 5SM BR SCT020 23/23 A2976 RMK AO2 SLP084 T02330233 53006
KPWG 190812Z AUTO 19007KT 6SM BR FEW018 24/24 A2975 RMK AO2
KPWG 190756Z AUTO 19010KT 6SM BR BKN018 24/24 A2975 RMK AO2 SLP079 T02440239
KPWG 190725Z AUTO 18009KT 6SM BR OVC012 24/24 A2974 RMK AO2
KPWG 190656Z AUTO 19010KT 6SM BR OVC007 24/24 A2975 RMK AO2 CIG 007V011 SLP076 T02440244
KPWG 190556Z AUTO 19009G16KT 6SM BR OVC007 24/24 A2974 RMK AO2 SLP074 T02440244 10272 20239 403060206 51013
KPWG 190534Z AUTO 18008KT 6SM BR BKN009 24/24 A2974 RMK AO2
KPWG 190456Z AUTO 18009KT 6SM BR FEW009 24/24 A2973 RMK AO2 SLP072 T02390239
KPWG 190356Z AUTO 17006KT 6SM BR CLR 24/24 A2973 RMK AO2 SLP071 T02390239
KPWG 190256Z AUTO 18006KT 7SM CLR 24/24 A2970 RMK AO2 SLP063 T02440244 51017
KPWG 190156Z AUTO 16007KT 7SM CLR 25/24 A2969 RMK AO2 SLP058 T02500244
KPWG 190056Z AUTO 18009KT 8SM CLR 26/25 A2967 RMK AO2 SLP051 T02610250
KPWG 182356Z AUTO 18014G20KT 9SM CLR 27/25 A2965 RMK AO2 SLP045 60030 T02720250 10306 20206 55002
KPWG 182256Z AUTO 18013KT 10SM CLR 27/26 A2964 RMK AO2 SLPNO T02670256
KPWG 182156Z AUTO 19007KT 10SM FEW025 SCT038 OVC045 23/23 A2965 RMK AO2 RAB20E33 SLP046 P0004 T02330228
KPWG 182151Z AUTO 18007KT 10SM FEW020 SCT036 OVC045 23/22 A2966 RMK AO2 RAB20E33 P0004
KPWG 182136Z AUTO 17013KT 10SM BKN022 OVC036 22/22 A2967 RMK AO2 RAB20E33 P0004
KPWG 182056Z AUTO 17012KT 10SM BKN030 OVC038 21/20 A2965 RMK AO2 PK WND 16031/2016 WSHFT 2033 RAE07 SLP048 P0006 60026 T02060200 58014
KPWG 182018Z AUTO 15022G31KT 3SM BR SCT041 BKN055 OVC090 21/19 A2962 RMK AO2 PK WND 16031/2016 RAE07 PRESFR P0006
KPWG 182008Z AUTO 16013G19KT 1 3/4SM BR FEW019 BKN050 OVC080 24/24 A2964 RMK AO2 VIS 1 1/4V3 RAE07 PRESFR P0004
KPWG 181956Z AUTO 19010G17KT 4SM +RA BR SCT026 BKN045 OVC060 24/24 A2969 RMK AO2 RAB39 SLP058 P0020 T02440239
KPWG 181934Z AUTO 17016KT 4SM HZ SCT028 BKN050 BKN070 27/23 A2966 RMK AO2
KPWG 181856Z AUTO 17018G26KT 10SM BKN028 BKN037 30/23 A2966 RMK AO2 PK WND 18027/1814 SLP048 T03000233
KPWG 181809Z AUTO 17018G26KT 10SM BKN025 BKN030 BKN044 29/23 A2969 RMK AO2 PK WND 18026/1801
KPWG 181756Z AUTO 17022G27KT 10SM SCT025 BKN038 BKN045 29/23 A2969 RMK AO2 PK WND 17027/1752 SLP058 60000 T02890233 10294 20239 56012
KPWG 181753Z AUTO 17021G27KT 10SM BKN025 BKN040 29/23 A2970 RMK AO2 PK WND 17027/1752
KPWG 181737Z AUTO 17015G22KT 10SM SCT023 BKN038 28/23 A2971 RMK AO2
KPWG 181656Z AUTO 17014KT 10SM BKN023 OVC033 27/23 A2973 RMK AO2 RAB10E20 SLP070 P0000 T02720233
KPWG 181556Z AUTO 18009KT 10SM OVC020 26/23 A2973 RMK AO2 SLP072 T02560233
KPWG 181456Z AUTO 16017G23KT 10SM BKN019 OVC025 26/23 A2972 RMK AO2 SLP066 T02560228 58009
KPWG 181415Z AUTO 16015G22KT 10SM OVC015 25/23 A2973 RMK AO2
KPWG 181356Z AUTO 16019G24KT 10SM BKN013 BKN021 OVC065 25/23 A2971 RMK AO2 SLP065 T02500228
KPWG 181342Z AUTO 15017KT 10SM BKN013 BKN019 OVC065 24/23 A2970 RMK AO2
KPWG 181256Z AUTO 16014KT 10SM OVC017 24/23 A2975 RMK AO2 SLP079 T02390228
KPWG 181156Z AUTO 15011KT 10SM BKN015 BKN020 OVC027 24/ A2974 RMK AO2 SLP075 T0239 50002
KPWG 181056Z AUTO 15010KT 10SM OVC015 A2974 RMK AO2 SLPNO FZRANO
KPWG 181050Z AUTO 15013KT 10SM OVC015 A2974 RMK AO2 FZRANO
KPWG 180956Z AUTO 15013KT 10SM BKN013 OVC019 24/23 A2974 RMK AO2 SLP072 T02390228
KPWG 180856Z AUTO 15013KT 10SM OVC013 24/23 A2975 RMK AO2 SLP076 T02390228 56009
KPWG 180849Z AUTO 16013KT 10SM OVC013 24/23 A2975 RMK AO2